KBJC

Rocky Mountain Metropolitan Airport

Denver, Colorado, USA
METAR KBJC 172049Z 25016G21KT 30SM FEW100 13/M17 A2997
Observed Flight Rules
Feb-17 @ 20:49 UTC (43 minutes ago) Visual Flight Rules
Wind Visibility Clouds
250° at 16 knots
 Gusting to 21 knots
30 miles
  • Few at 10,000' AGL
Temperatures Readings
Current 13°C / 55°F
Dewpoint -17°C / 1°F
Humidity 11%
Altimeter 29.97" Hg
Pressure 1015 hPa
Elevation 1724
METAR KBJC 172049Z 25016G21KT 30SM FEW100 13/M17 A2997
Observed Flight Rules
Feb-17 @ 20:49 UTC
(43 minutes ago)
VFR
Wind Visibility
250° at 16 knots
 Gusting to 21 knots
30 miles
Clouds
  • Few at 10,000' AGL
Temperature Dewpoint
13°C / 55°F -17°C / 1°F
Humidity Altimeter Pressure
11% 29.97" Hg 1015 hPa